Terminal Aerodrome Forecast
Issued by NWS

Home | Current Version | Previous Version | Text Only | Print | Product List | Glossary Off
Versions: 1 2 3 4 5 6 7 8 9 10 11 12 13 14 15 16 17 18 19 20 21 22 23 24 25

000
FTUS43 KGRB 211315 AAA
TAFCWA
TAF AMD
KCWA 211315Z 2113/2212 12008KT 3/4SM BR OVC002
      TEMPO 2113/2115 1 1/2SM BR OVC003
     FM211500 17008KT P6SM BKN006 BKN010
     FM211700 23011G15KT P6SM OVC012
     FM212000 24012G17KT P6SM VCSH OVC020
     FM220100 25008KT P6SM VCSH BKN022=

USA.gov is the U.S. government's official web portal to all federal, state and local government web resources and services.